Time;durP1;ratioP1;P1;durP2;ratioP2;P2;SDS_P1;SDS_P2;PMS_P1;PMS_P2;Temp;Humidity;BMP_temperature;BMP_pressure;BME280_temperature;BME280_humidity;BME280_pressure;Samples;Min_cycle;Max_cycle;Signal;HPM_P1;HPM_P2
2022/01/20 00:01:50;;;;;;;36.27;5.63;;;5.00;31.30;;;;;;5046365;28;20562;-63
2022/01/20 00:04:24;;;;;;;37.40;5.70;;;5.00;31.40;;;;;;5037100;28;20469;-63
2022/01/20 00:20:29;;;;;;;37.70;5.40;;;4.90;31.80;;;;;;5039475;28;20457;-63
2022/01/20 00:25:50;;;;;;;36.80;5.30;;;4.90;32.10;;;;;;5033903;28;20828;-62
2022/01/20 00:26:40;;;;;;;37.50;5.00;;;4.90;32.10;;;;;;5037405;28;20557;-62
2022/01/20 00:29:15;;;;;;;36.20;4.90;;;4.90;31.90;;;;;;5040193;28;20612;-63
2022/01/20 00:31:48;;;;;;;37.33;5.30;;;4.90;31.90;;;;;;5046620;28;20559;-63
2022/01/20 00:34:19;;;;;;;37.07;7.53;;;4.90;31.90;;;;;;5046511;28;20550;-62
2022/01/20 00:39:31;;;;;;;35.53;4.80;;;4.90;32.10;;;;;;5035573;28;20601;-62
2022/01/20 00:41:58;;;;;;;36.17;5.20;;;4.90;32.20;;;;;;5043486;28;20993;-62
2022/01/20 00:44:27;;;;;;;37.10;4.80;;;4.90;32.20;;;;;;5029591;28;20455;-62
2022/01/20 00:46:55;;;;;;;37.60;5.43;;;4.80;32.40;;;;;;5046031;28;20482;-62
2022/01/20 00:49:22;;;;;;;37.07;6.00;;;4.80;32.40;;;;;;5042743;28;20574;-62
2022/01/20 00:51:48;;;;;;;37.70;5.93;;;4.80;32.60;;;;;;5041333;28;20465;-61
2022/01/20 00:54:15;;;;;;;37.63;5.43;;;4.90;32.70;;;;;;5046053;28;20458;-62
2022/01/20 00:56:42;;;;;;;36.03;4.90;;;4.80;32.70;;;;;;5046728;28;20968;-62
2022/01/20 00:59:08;;;;;;;37.60;5.90;;;4.80;32.90;;;;;;5040641;28;20470;-63
2022/01/20 01:01:37;;;;;;;36.17;5.10;;;4.80;33.10;;;;;;5047093;28;20478;-63
2022/01/20 01:04:04;;;;;;;38.23;5.13;;;4.80;33.20;;;;;;5047446;28;20449;-63
2022/01/20 01:06:42;;;;;;;38.17;5.40;;;4.80;33.30;;;;;;5036054;28;21185;-62
2022/01/20 01:09:09;;;;;;;35.47;4.67;;;4.80;33.30;;;;;;5038885;28;20478;-63
2022/01/20 01:11:37;;;;;;;36.00;5.00;;;4.80;34.30;;;;;;5038842;28;20450;-62
2022/01/20 01:14:05;;;;;;;36.10;4.73;;;4.80;34.10;;;;;;5040915;28;20459;-63
2022/01/20 01:19:58;;;;;;;36.33;5.47;;;4.70;34.20;;;;;;5029473;28;20463;-62
2022/01/20 01:22:21;;;;;;;37.00;5.60;;;4.70;34.70;;;;;;5041706;28;20454;-62
2022/01/20 01:24:52;;;;;;;37.37;5.60;;;4.70;34.80;;;;;;5042826;28;20458;-62
2022/01/20 01:27:19;;;;;;;37.50;5.80;;;4.60;34.60;;;;;;5039912;28;20486;-62
2022/01/20 01:30:04;;;;;;;36.83;5.33;;;4.60;34.80;;;;;;5037462;28;20463;-62
2022/01/20 01:32:39;;;;;;;36.83;5.33;;;4.60;34.80;;;;;;5043401;28;20581;-63
2022/01/20 01:35:09;;;;;;;36.57;5.60;;;4.60;35.00;;;;;;5047839;28;20519;-61
2022/01/20 01:38:24;;;;;;;37.60;5.87;;;4.60;35.00;;;;;;5037319;28;20971;-62
2022/01/20 01:40:26;;;;;;;36.43;5.37;;;4.60;35.00;;;;;;5039445;28;20987;-62
2022/01/20 01:42:54;;;;;;;36.50;5.63;;;4.60;35.00;;;;;;5028483;28;20455;-62
2022/01/20 01:45:32;;;;;;;36.00;4.70;;;4.60;35.00;;;;;;5046839;28;20462;-63
2022/01/20 01:47:59;;;;;;;36.20;5.40;;;4.60;35.10;;;;;;5038868;28;20852;-62
2022/01/20 01:50:28;;;;;;;37.90;6.50;;;4.60;35.00;;;;;;5037484;28;20548;-63
2022/01/20 01:52:56;;;;;;;36.77;4.90;;;4.60;35.00;;;;;;5044071;28;20459;-62
2022/01/20 01:55:24;;;;;;;36.40;5.83;;;4.60;35.00;;;;;;5032992;28;20463;-62
2022/01/20 01:57:51;;;;;;;37.10;5.33;;;4.60;35.30;;;;;;5050019;28;20465;-62
2022/01/20 02:00:19;;;;;;;37.23;5.90;;;4.60;35.50;;;;;;5047010;28;20544;-61
2022/01/20 02:02:47;;;;;;;36.07;5.17;;;4.50;35.80;;;;;;5032186;28;20830;-62
2022/01/20 02:05:16;;;;;;;37.03;5.80;;;4.50;36.00;;;;;;5035563;28;20470;-62
2022/01/20 02:18:47;;;;;;;36.50;6.40;;;4.50;35.90;;;;;;5042491;28;20489;-62
2022/01/20 02:21:15;;;;;;;35.50;5.40;;;4.50;35.90;;;;;;5037330;28;20465;-62
2022/01/20 02:23:44;;;;;;;37.40;6.23;;;4.40;36.00;;;;;;5044709;28;20446;-62
2022/01/20 02:26:11;;;;;;;36.87;5.50;;;4.40;36.10;;;;;;5042723;28;20983;-62
2022/01/20 02:28:38;;;;;;;38.10;6.50;;;4.40;36.20;;;;;;5043844;28;20478;-62
2022/01/20 02:31:05;;;;;;;37.17;5.57;;;4.40;36.30;;;;;;5036354;28;20475;-62
2022/01/20 02:33:32;;;;;;;36.47;5.47;;;4.40;37.00;;;;;;5046852;28;21188;-62
2022/01/20 02:36:02;;;;;;;36.63;5.80;;;4.40;36.80;;;;;;5045020;28;20519;-62
2022/01/20 02:38:35;;;;;;;38.10;6.60;;;4.40;36.90;;;;;;5040870;28;20471;-62
2022/01/20 02:46:32;;;;;;;36.20;5.87;;;4.30;37.20;;;;;;5049764;28;20473;-62
2022/01/20 02:48:59;;;;;;;39.00;6.60;;;4.30;37.30;;;;;;5045332;28;20520;-62
2022/01/20 02:51:26;;;;;;;37.53;6.40;;;4.30;37.30;;;;;;5036017;28;20524;-62
2022/01/20 02:53:54;;;;;;;35.90;4.97;;;4.30;37.30;;;;;;5042833;28;20461;-62
2022/01/20 02:56:21;;;;;;;36.47;5.60;;;4.30;37.20;;;;;;5049770;28;20458;-62
2022/01/20 02:58:48;;;;;;;38.00;6.03;;;4.30;37.30;;;;;;5049105;28;20489;-62
2022/01/20 03:01:15;;;;;;;39.67;6.83;;;4.30;37.40;;;;;;5043090;28;20465;-62
2022/01/20 03:03:42;;;;;;;37.03;6.20;;;4.30;37.50;;;;;;5041489;28;20984;-62
2022/01/20 03:06:09;;;;;;;37.50;6.07;;;4.30;37.60;;;;;;5042559;28;20461;-63
2022/01/20 03:08:36;;;;;;;37.27;5.77;;;4.30;37.60;;;;;;5037777;28;20474;-63
2022/01/20 03:11:04;;;;;;;38.50;6.20;;;4.30;37.70;;;;;;5048110;28;21039;-63
2022/01/20 03:13:31;;;;;;;38.80;6.37;;;4.30;37.70;;;;;;5035385;28;20454;-63
2022/01/20 03:15:58;;;;;;;39.13;6.20;;;4.30;38.00;;;;;;5035496;28;20455;-63
2022/01/20 03:18:24;;;;;;;39.30;6.13;;;4.30;38.00;;;;;;5045716;28;20466;-64
2022/01/20 03:20:51;;;;;;;38.27;6.03;;;4.30;38.10;;;;;;5046479;28;20960;-63
2022/01/20 03:23:18;;;;;;;37.77;6.00;;;4.30;38.00;;;;;;5041099;28;20473;-62
2022/01/20 03:25:45;;;;;;;38.00;5.87;;;4.30;38.10;;;;;;5046263;28;20968;-62
2022/01/20 03:28:14;;;;;;;38.53;6.27;;;4.30;38.20;;;;;;5039060;28;20547;-62
2022/01/20 03:30:41;;;;;;;37.57;6.73;;;4.30;38.40;;;;;;5048592;28;20490;-62
2022/01/20 03:33:07;;;;;;;37.67;6.50;;;4.30;38.90;;;;;;5041492;28;20469;-62
2022/01/20 03:35:34;;;;;;;37.60;6.00;;;4.30;39.10;;;;;;5045628;28;20458;-62
2022/01/20 03:38:01;;;;;;;38.60;6.70;;;4.20;39.40;;;;;;5043800;28;21018;-62
2022/01/20 03:40:28;;;;;;;37.60;6.30;;;4.20;39.60;;;;;;5046313;28;20446;-62
2022/01/20 03:42:55;;;;;;;36.37;6.13;;;4.20;39.70;;;;;;5042246;28;20463;-62
2022/01/20 03:45:25;;;;;;;38.07;6.10;;;4.20;39.90;;;;;;5039061;28;20481;-62
2022/01/20 03:47:55;;;;;;;39.00;6.97;;;4.20;40.10;;;;;;5041219;28;20525;-62
2022/01/20 03:53:06;;;;;;;37.43;6.70;;;4.20;40.50;;;;;;5035677;28;20547;-62
2022/01/20 03:55:33;;;;;;;38.10;5.83;;;4.20;40.40;;;;;;5046183;28;20450;-62
2022/01/20 03:58:00;;;;;;;39.43;7.40;;;4.20;40.60;;;;;;5037216;28;20482;-63
2022/01/20 04:00:28;;;;;;;39.20;7.20;;;4.10;40.50;;;;;;5047945;28;20450;-62
2022/01/20 04:02:55;;;;;;;37.90;7.00;;;4.10;40.50;;;;;;5036085;28;20975;-62
2022/01/20 04:05:22;;;;;;;39.10;6.97;;;4.10;40.60;;;;;;5040002;28;20462;-63
2022/01/20 04:07:48;;;;;;;38.97;7.40;;;4.20;40.70;;;;;;5044313;28;20487;-62
2022/01/20 04:10:15;;;;;;;39.07;6.70;;;4.10;40.60;;;;;;5047642;28;20478;-63
2022/01/20 04:12:42;;;;;;;39.50;6.93;;;4.10;40.50;;;;;;5046395;28;20988;-63
2022/01/20 04:15:09;;;;;;;38.43;6.80;;;4.20;40.60;;;;;;5031924;28;20452;-62
2022/01/20 04:17:41;;;;;;;38.80;6.57;;;4.10;40.60;;;;;;5041017;28;21054;-63
2022/01/20 04:20:09;;;;;;;42.30;8.60;;;4.10;40.90;;;;;;5044738;28;20480;-63
2022/01/20 04:22:36;;;;;;;39.00;6.80;;;4.10;41.10;;;;;;5032969;28;20529;-63
2022/01/20 04:25:04;;;;;;;40.27;7.07;;;4.10;41.50;;;;;;5044065;28;20458;-64
2022/01/20 04:27:31;;;;;;;40.70;7.47;;;4.10;41.80;;;;;;5036822;28;20480;-63
2022/01/20 04:29:58;;;;;;;38.90;6.40;;;4.10;41.80;;;;;;5045573;28;20470;-63
2022/01/20 04:32:25;;;;;;;40.50;7.67;;;4.10;42.20;;;;;;5037009;28;20481;-63
2022/01/20 04:34:54;;;;;;;38.33;7.00;;;4.00;42.20;;;;;;5045104;28;20458;-62
2022/01/20 04:37:21;;;;;;;39.60;7.70;;;4.00;42.40;;;;;;5042666;28;20964;-62
2022/01/20 04:39:50;;;;;;;39.83;7.33;;;4.00;42.50;;;;;;5043721;28;20484;-62
2022/01/20 04:42:18;;;;;;;41.60;7.83;;;4.00;42.60;;;;;;5034980;28;20482;-62
2022/01/20 04:44:50;;;;;;;40.40;7.60;;;4.00;42.50;;;;;;5048143;28;20543;-62
2022/01/20 04:47:31;;;;;;;40.30;8.40;;;4.00;42.80;;;;;;5044770;28;21022;-62
2022/01/20 04:58:12;;;;;;;37.10;5.97;;;3.90;43.40;;;;;;5020936;28;20494;-63
2022/01/20 05:00:39;;;;;;;39.57;7.53;;;3.90;43.60;;;;;;5026869;28;20474;-65
2022/01/20 05:03:06;;;;;;;39.00;6.53;;;3.90;43.50;;;;;;5025283;28;20462;-63
2022/01/20 05:05:34;;;;;;;39.03;7.57;;;3.90;43.60;;;;;;5026586;28;20454;-64
2022/01/20 05:08:01;;;;;;;41.80;7.43;;;4.00;43.70;;;;;;5023830;28;20489;-63
2022/01/20 05:10:30;;;;;;;40.47;8.00;;;3.90;43.80;;;;;;5026020;28;20482;-63
2022/01/20 05:15:43;;;;;;;41.27;8.43;;;3.90;43.80;;;;;;5022259;28;20988;-66
2022/01/20 05:18:10;;;;;;;41.57;8.30;;;3.90;44.70;;;;;;5025971;28;20979;-63
2022/01/20 05:20:38;;;;;;;41.77;8.17;;;3.90;44.20;;;;;;5025084;28;20491;-64
2022/01/20 05:23:05;;;;;;;41.07;7.90;;;3.90;44.20;;;;;;5026343;28;20481;-64
2022/01/20 05:25:32;;;;;;;39.93;7.67;;;3.90;44.20;;;;;;5017549;28;20458;-64
2022/01/20 05:27:59;;;;;;;41.43;8.50;;;3.90;44.30;;;;;;5027434;28;20474;-63
2022/01/20 05:30:26;;;;;;;41.43;7.60;;;3.90;44.30;;;;;;5022892;28;20495;-65
2022/01/20 05:32:52;;;;;;;41.50;8.57;;;3.90;44.30;;;;;;5007895;28;20460;-64
2022/01/20 05:35:19;;;;;;;41.77;7.77;;;3.90;44.50;;;;;;5008053;28;20471;-64
2022/01/20 05:38:00;;;;;;;39.17;7.40;;;3.90;45.10;;;;;;5008379;28;20454;-66
2022/01/20 05:40:28;;;;;;;42.07;8.00;;;3.90;44.50;;;;;;5008545;28;20487;-64
2022/01/20 05:42:55;;;;;;;39.40;7.30;;;3.90;44.40;;;;;;5005586;28;20467;-67
2022/01/20 05:45:23;;;;;;;41.70;8.07;;;3.90;44.50;;;;;;5007714;28;20455;-63
2022/01/20 05:47:59;;;;;;;40.00;7.80;;;3.90;44.70;;;;;;5008245;28;20511;-65
2022/01/20 05:50:26;;;;;;;40.00;7.43;;;3.90;44.50;;;;;;5003362;28;21114;-66
2022/01/20 05:52:54;;;;;;;41.77;7.73;;;3.90;44.70;;;;;;5006364;28;20801;-65
2022/01/20 05:55:22;;;;;;;39.13;7.60;;;3.90;44.80;;;;;;5006472;28;20973;-65
2022/01/20 05:57:49;;;;;;;41.00;7.70;;;3.80;45.50;;;;;;5007900;28;20462;-67
2022/01/20 06:00:20;;;;;;;38.70;7.40;;;3.80;44.90;;;;;;5004754;28;20490;-66
2022/01/20 06:05:32;;;;;;;41.83;7.43;;;3.80;44.90;;;;;;5010014;28;20493;-65
2022/01/20 06:08:00;;;;;;;40.80;8.50;;;3.80;45.00;;;;;;5013125;28;20487;-65
2022/01/20 06:10:27;;;;;;;39.27;7.50;;;3.80;44.90;;;;;;5006742;28;20492;-64
2022/01/20 06:12:54;;;;;;;40.30;7.87;;;3.90;45.10;;;;;;5008530;28;21011;-65
2022/01/20 06:15:21;;;;;;;40.10;7.30;;;3.80;44.80;;;;;;5009239;28;20468;-64
2022/01/20 06:17:47;;;;;;;39.70;7.73;;;3.80;44.90;;;;;;5014881;28;20491;-65
2022/01/20 06:20:14;;;;;;;41.13;7.90;;;3.80;44.90;;;;;;5021553;28;20472;-66
2022/01/20 06:22:41;;;;;;;40.63;8.40;;;3.80;45.00;;;;;;5008229;28;20464;-62
2022/01/20 06:25:10;;;;;;;40.13;7.50;;;3.90;45.00;;;;;;5007225;28;20456;-66
2022/01/20 06:27:37;;;;;;;41.17;8.10;;;3.90;45.00;;;;;;5008617;28;20526;-64
2022/01/20 06:30:04;;;;;;;41.20;8.13;;;3.90;45.00;;;;;;5020224;28;20479;-66
2022/01/20 06:32:31;;;;;;;39.43;7.23;;;3.90;45.10;;;;;;5018824;28;20474;-63
2022/01/20 06:34:58;;;;;;;40.17;7.93;;;3.90;45.10;;;;;;5013974;28;20464;-63
2022/01/20 06:37:25;;;;;;;41.30;7.30;;;3.90;44.90;;;;;;5009714;28;20460;-63
2022/01/20 06:39:52;;;;;;;39.80;7.30;;;3.90;45.00;;;;;;5010813;28;20487;-63
2022/01/20 06:42:20;;;;;;;40.80;7.33;;;3.90;44.90;;;;;;5010644;28;20483;-65
2022/01/20 06:44:47;;;;;;;39.47;6.77;;;3.90;44.90;;;;;;5011108;28;21209;-63
2022/01/20 06:47:14;;;;;;;39.00;7.50;;;3.90;44.90;;;;;;5011594;28;20448;-64
2022/01/20 06:49:41;;;;;;;40.47;7.53;;;3.90;44.80;;;;;;5011320;28;20993;-64
2022/01/20 06:52:08;;;;;;;39.40;7.20;;;3.90;44.70;;;;;;5009801;28;20473;-63
2022/01/20 06:54:35;;;;;;;38.77;7.30;;;3.90;44.50;;;;;;5010985;28;20463;-63
2022/01/20 06:57:02;;;;;;;40.30;6.90;;;3.90;44.50;;;;;;4992051;28;20460;-64
2022/01/20 06:59:30;;;;;;;37.83;6.10;;;3.90;44.60;;;;;;5001812;28;20487;-64
2022/01/20 07:01:57;;;;;;;39.97;7.47;;;3.90;44.70;;;;;;5010439;28;20480;-63
2022/01/20 07:04:26;;;;;;;40.70;6.83;;;3.90;44.70;;;;;;5010932;28;20470;-64
2022/01/20 07:06:53;;;;;;;38.27;6.30;;;3.90;44.70;;;;;;5011155;28;20542;-64
2022/01/20 07:09:20;;;;;;;38.47;6.60;;;3.90;44.60;;;;;;5011048;28;20480;-64
2022/01/20 07:11:47;;;;;;;38.10;5.90;;;3.90;44.50;;;;;;5010816;28;20845;-64
2022/01/20 07:14:14;;;;;;;39.37;7.43;;;3.90;44.50;;;;;;5010311;28;20464;-64
2022/01/20 07:16:42;;;;;;;40.70;6.40;;;3.90;44.50;;;;;;5010289;28;20460;-64
2022/01/20 07:19:09;;;;;;;39.27;6.90;;;3.90;44.50;;;;;;5018898;28;20476;-63
2022/01/20 07:21:36;;;;;;;38.27;6.57;;;3.90;44.40;;;;;;5011143;28;20470;-64
2022/01/20 07:24:02;;;;;;;38.50;6.90;;;3.90;44.50;;;;;;5009781;28;20483;-64
2022/01/20 07:26:29;;;;;;;37.90;6.27;;;3.90;44.50;;;;;;5010897;28;20459;-65
2022/01/20 07:28:56;;;;;;;38.47;6.83;;;3.90;44.50;;;;;;5010744;28;20487;-64
2022/01/20 07:31:23;;;;;;;39.63;6.80;;;3.90;44.70;;;;;;5009599;28;20476;-64
2022/01/20 07:33:51;;;;;;;37.40;6.40;;;3.90;44.60;;;;;;5009372;28;20558;-64
2022/01/20 07:36:18;;;;;;;38.40;6.47;;;3.90;44.70;;;;;;5010428;28;20464;-64
2022/01/20 07:38:45;;;;;;;38.37;6.80;;;3.90;44.90;;;;;;5010313;28;21052;-64
2022/01/20 07:41:12;;;;;;;38.00;5.50;;;4.00;44.70;;;;;;5010558;28;20471;-63
2022/01/20 07:43:40;;;;;;;37.90;6.90;;;3.90;44.60;;;;;;5009123;28;20467;-64
2022/01/20 07:46:07;;;;;;;38.13;5.93;;;3.90;44.50;;;;;;5008820;28;20467;-63
2022/01/20 07:48:34;;;;;;;40.57;6.83;;;4.00;44.40;;;;;;5009706;28;21188;-64
2022/01/20 07:51:04;;;;;;;37.93;6.13;;;4.00;44.20;;;;;;5010005;28;20471;-64
2022/01/20 07:53:31;;;;;;;36.37;5.70;;;4.00;44.00;;;;;;5010055;28;20491;-63
2022/01/20 07:55:57;;;;;;;37.37;5.60;;;4.10;44.00;;;;;;5009209;28;20464;-64
2022/01/20 07:58:24;;;;;;;36.87;5.20;;;4.10;44.00;;;;;;5009887;28;20452;-64
2022/01/20 08:00:51;;;;;;;37.87;6.40;;;4.10;44.00;;;;;;5008484;28;20463;-63
2022/01/20 08:03:18;;;;;;;37.57;6.03;;;4.10;43.80;;;;;;5020259;28;20459;-64
2022/01/20 08:05:45;;;;;;;38.20;6.30;;;4.10;43.80;;;;;;5005711;28;20467;-61
2022/01/20 08:08:13;;;;;;;37.47;6.13;;;4.20;43.50;;;;;;5010512;28;20491;-65
2022/01/20 08:10:39;;;;;;;37.57;6.00;;;4.20;43.40;;;;;;5009287;28;20484;-64
2022/01/20 08:13:07;;;;;;;37.90;5.97;;;4.10;43.50;;;;;;5007470;28;20463;-63
2022/01/20 08:15:34;;;;;;;39.00;5.67;;;4.20;43.30;;;;;;5016358;28;20471;-64
2022/01/20 08:18:01;;;;;;;39.13;6.57;;;4.10;43.40;;;;;;5016349;28;20463;-63
2022/01/20 08:20:27;;;;;;;45.03;6.77;;;4.20;43.50;;;;;;5012744;28;20488;-63
2022/01/20 08:22:54;;;;;;;39.40;6.50;;;4.20;43.40;;;;;;5009158;28;20462;-64
2022/01/20 08:25:23;;;;;;;38.43;6.87;;;4.20;43.40;;;;;;5011274;28;20466;-64
2022/01/20 08:27:50;;;;;;;37.57;6.80;;;4.20;43.40;;;;;;5009132;28;20985;-64
2022/01/20 08:30:20;;;;;;;37.23;5.97;;;4.20;43.40;;;;;;5008511;28;20862;-64
2022/01/20 08:32:47;;;;;;;39.10;6.97;;;4.20;43.40;;;;;;5010493;28;20456;-64
2022/01/20 08:35:16;;;;;;;38.23;6.47;;;4.20;43.30;;;;;;5011108;28;20483;-64
2022/01/20 08:37:45;;;;;;;37.20;5.23;;;4.20;43.30;;;;;;5006500;28;20467;-63
2022/01/20 08:40:15;;;;;;;38.37;6.23;;;4.30;43.40;;;;;;5008491;28;21140;-64
2022/01/20 08:42:45;;;;;;;38.90;6.13;;;4.30;43.10;;;;;;5009830;28;20460;-65
2022/01/20 08:45:15;;;;;;;38.27;6.10;;;4.40;43.20;;;;;;5008623;28;20467;-64
2022/01/20 08:47:42;;;;;;;36.40;5.40;;;4.40;43.20;;;;;;5009218;28;20468;-64
2022/01/20 08:50:10;;;;;;;37.87;6.37;;;4.40;43.00;;;;;;5009369;28;20488;-67
2022/01/20 08:52:37;;;;;;;38.77;6.00;;;4.50;42.70;;;;;;5009123;28;20466;-65
2022/01/20 08:55:05;;;;;;;40.47;6.30;;;4.50;42.60;;;;;;5010916;28;20464;-66
2022/01/20 08:57:32;;;;;;;39.33;6.03;;;4.60;42.40;;;;;;5008790;28;20467;-63
2022/01/20 09:00:01;;;;;;;37.03;6.00;;;4.60;42.20;;;;;;5016824;28;20470;-65
2022/01/20 09:02:28;;;;;;;37.40;5.70;;;4.70;42.10;;;;;;5007658;28;20481;-63
2022/01/20 09:04:54;;;;;;;38.20;6.83;;;4.70;41.80;;;;;;5011481;28;20538;-65
2022/01/20 09:07:21;;;;;;;37.40;5.60;;;4.70;41.60;;;;;;5022124;28;20915;-64
2022/01/20 09:09:49;;;;;;;38.87;7.10;;;4.80;41.50;;;;;;5006868;28;20491;-64
2022/01/20 09:15:27;;;;;;;39.27;6.47;;;5.00;41.30;;;;;;5016829;28;20535;-64
2022/01/20 09:15:28;;;;;;;36.30;5.80;;;4.90;41.70;;;;;;5016774;28;20452;-65
2022/01/20 09:17:55;;;;;;;39.80;5.70;;;5.10;41.00;;;;;;5017495;28;20524;-63
2022/01/20 09:20:22;;;;;;;37.53;6.67;;;5.10;40.50;;;;;;5012104;28;20518;-64
2022/01/20 09:22:50;;;;;;;38.00;6.23;;;5.10;40.50;;;;;;5008279;28;20460;-63
2022/01/20 09:25:17;;;;;;;36.37;5.00;;;5.40;41.20;;;;;;5009775;28;20466;-64
2022/01/20 09:27:44;;;;;;;37.07;5.37;;;6.10;40.80;;;;;;5016745;28;20833;-64
2022/01/20 09:30:18;;;;;;;34.70;4.40;;;6.90;39.90;;;;;;5015456;28;20496;-65
2022/01/20 09:32:56;;;;;;;33.87;4.10;;;8.60;35.70;;;;;;5027566;28;20529;-66
2022/01/20 09:35:24;;;;;;;34.90;4.30;;;9.00;30.50;;;;;;5027268;28;20463;-63
2022/01/20 09:37:51;;;;;;;33.37;4.37;;;10.50;29.10;;;;;;5027675;28;20999;-64
2022/01/20 09:40:17;;;;;;;33.40;4.40;;;12.20;24.00;;;;;;5025835;28;20483;-65
2022/01/20 09:42:44;;;;;;;33.10;4.40;;;13.60;20.00;;;;;;5026941;28;20455;-63
2022/01/20 09:45:14;;;;;;;31.17;3.80;;;14.50;16.60;;;;;;5027108;28;20462;-63
2022/01/20 09:47:43;;;;;;;32.60;4.27;;;14.90;15.80;;;;;;5027020;28;20455;-64
2022/01/20 09:50:11;;;;;;;32.10;3.63;;;16.10;14.50;;;;;;5026268;28;20479;-65
2022/01/20 09:52:38;;;;;;;31.57;3.43;;;17.30;12.10;;;;;;5026639;28;20455;-65
2022/01/20 09:55:05;;;;;;;30.70;3.60;;;18.40;10.20;;;;;;5027768;28;20579;-64
2022/01/20 09:57:32;;;;;;;32.30;2.97;;;19.00;7.80;;;;;;5027221;28;20953;-66
2022/01/20 10:00:00;;;;;;;31.00;2.83;;;18.00;8.60;;;;;;5027692;28;20475;-64
2022/01/20 10:02:28;;;;;;;30.83;3.20;;;16.70;10.20;;;;;;5027067;28;20521;-66
2022/01/20 10:04:56;;;;;;;30.93;3.73;;;15.90;10.60;;;;;;5026590;28;21017;-67
2022/01/20 10:07:23;;;;;;;30.90;2.97;;;15.20;10.80;;;;;;5031143;28;20530;-65
2022/01/20 10:09:51;;;;;;;31.17;2.90;;;14.50;11.90;;;;;;5030826;28;20482;-64
2022/01/20 10:12:21;;;;;;;31.07;2.60;;;14.00;12.20;;;;;;5029789;28;20557;-64
2022/01/20 10:14:51;;;;;;;34.50;3.10;;;13.50;12.40;;;;;;5030936;28;20554;-63
2022/01/20 10:17:19;;;;;;;34.03;3.53;;;12.80;13.30;;;;;;5031202;28;21012;-65
2022/01/20 10:19:50;;;;;;;33.67;3.17;;;12.20;14.90;;;;;;5037928;28;20459;-62
2022/01/20 10:22:21;;;;;;;33.07;3.13;;;11.80;15.50;;;;;;5030801;28;20458;-64
2022/01/20 10:24:59;;;;;;;33.10;2.73;;;11.40;15.60;;;;;;5031611;28;20517;-63
2022/01/20 10:27:26;;;;;;;33.70;3.20;;;10.70;16.90;;;;;;5011976;28;20455;-62
2022/01/20 10:29:58;;;;;;;34.43;2.53;;;10.30;17.90;;;;;;5030116;28;20486;-63
2022/01/20 10:32:25;;;;;;;33.27;2.47;;;9.80;18.90;;;;;;5028486;28;20475;-65
2022/01/20 10:35:04;;;;;;;33.10;2.60;;;9.50;20.40;;;;;;5030339;28;20470;-62
2022/01/20 10:37:31;;;;;;;37.10;2.90;;;9.20;21.10;;;;;;5031533;28;20459;-64
2022/01/20 10:40:07;;;;;;;33.50;2.50;;;9.10;20.60;;;;;;5031094;28;20475;-63
2022/01/20 10:42:38;;;;;;;39.17;3.67;;;8.90;22.70;;;;;;5030071;28;20470;-65
2022/01/20 10:45:06;;;;;;;39.77;2.93;;;8.70;23.40;;;;;;5030464;28;20952;-64
2022/01/20 10:47:36;;;;;;;36.00;3.00;;;8.60;22.40;;;;;;5031012;28;20546;-65
2022/01/20 10:50:12;;;;;;;34.20;3.20;;;8.40;22.30;;;;;;5037620;23;20484;-59
2022/01/20 10:52:44;;;;;;;35.97;3.60;;;8.20;22.70;;;;;;5008742;28;20865;-60
2022/01/20 10:55:20;;;;;;;36.93;3.67;;;8.10;23.30;;;;;;5014862;28;20464;-60
2022/01/20 10:57:47;;;;;;;35.83;3.40;;;8.00;24.50;;;;;;5010906;28;20808;-60
2022/01/20 11:00:19;;;;;;;36.00;3.40;;;7.90;23.60;;;;;;5026485;28;20471;-59
2022/01/20 11:02:50;;;;;;;34.83;4.80;;;7.70;24.40;;;;;;5010225;28;20459;-62
2022/01/20 11:05:18;;;;;;;35.50;3.40;;;7.70;25.10;;;;;;5010235;28;20878;-61
2022/01/20 11:07:46;;;;;;;35.30;2.87;;;7.60;25.90;;;;;;5010921;28;20456;-61
2022/01/20 11:10:13;;;;;;;37.20;4.77;;;7.60;24.80;;;;;;5009720;28;21045;-59
2022/01/20 11:12:41;;;;;;;33.67;3.27;;;7.60;25.30;;;;;;5010390;28;20452;-61
2022/01/20 11:15:10;;;;;;;35.87;3.20;;;7.50;25.60;;;;;;5004433;28;20515;-58
2022/01/20 11:17:40;;;;;;;36.87;3.77;;;7.40;25.30;;;;;;5009042;28;21044;-59
2022/01/20 11:20:09;;;;;;;37.40;4.47;;;7.30;25.90;;;;;;5007374;28;21037;-61
2022/01/20 11:22:39;;;;;;;37.57;4.37;;;7.20;26.30;;;;;;5007015;28;20470;-60
2022/01/20 11:25:09;;;;;;;34.20;3.30;;;7.20;26.70;;;;;;5010638;28;20464;-60
2022/01/20 11:27:38;;;;;;;34.87;3.47;;;7.10;27.10;;;;;;5017013;28;20810;-61
2022/01/20 11:30:16;;;;;;;36.43;3.50;;;7.10;27.30;;;;;;5010136;28;20864;-61
2022/01/20 11:32:45;;;;;;;37.00;3.77;;;7.20;27.40;;;;;;5010111;28;20462;-61
2022/01/20 11:35:16;;;;;;;35.70;3.70;;;7.30;27.10;;;;;;5009370;28;20494;-62
2022/01/20 11:37:56;;;;;;;38.00;3.20;;;7.40;26.60;;;;;;5007364;28;20456;-61
2022/01/20 11:40:24;;;;;;;35.50;3.93;;;7.60;27.60;;;;;;5019737;28;20487;-59
2022/01/20 11:42:58;;;;;;;39.70;5.23;;;8.00;25.00;;;;;;5016717;28;20471;-61
2022/01/20 11:45:28;;;;;;;35.17;3.80;;;7.90;24.70;;;;;;5020377;28;20458;-62
2022/01/20 11:47:55;;;;;;;33.93;3.20;;;7.70;24.60;;;;;;5012062;28;20727;-62
2022/01/20 11:50:22;;;;;;;35.00;3.47;;;7.60;24.40;;;;;;5017853;28;20502;-63
2022/01/20 11:52:50;;;;;;;39.73;3.80;;;7.30;25.10;;;;;;5016791;28;20467;-61
2022/01/20 11:55:18;;;;;;;34.20;3.80;;;7.40;25.30;;;;;;5017947;28;20560;-62
2022/01/20 11:57:45;;;;;;;36.10;3.73;;;7.30;26.20;;;;;;5012564;28;20455;-60
2022/01/20 12:00:24;;;;;;;36.87;3.73;;;7.30;27.00;;;;;;5021808;28;20493;-61
2022/01/20 12:02:51;;;;;;;37.00;4.07;;;7.30;27.50;;;;;;5008368;28;20482;-62
2022/01/20 12:05:25;;;;;;;37.07;4.33;;;7.40;27.10;;;;;;5008545;28;20521;-61
2022/01/20 12:08:05;;;;;;;34.50;3.50;;;7.40;26.90;;;;;;5011575;28;20472;-62
2022/01/20 12:10:32;;;;;;;41.40;4.53;;;7.40;26.20;;;;;;5007620;28;21071;-62
2022/01/20 12:13:06;;;;;;;38.63;4.90;;;7.30;26.80;;;;;;5013310;28;20467;-59
2022/01/20 12:15:33;;;;;;;38.40;4.47;;;7.20;28.30;;;;;;5006683;28;20467;-59
2022/01/20 12:18:00;;;;;;;38.50;4.23;;;7.10;29.20;;;;;;5009036;28;20460;-60
2022/01/20 12:20:27;;;;;;;38.27;3.83;;;7.00;28.80;;;;;;5012016;28;20986;-61
2022/01/20 12:22:55;;;;;;;37.53;4.47;;;7.00;29.50;;;;;;5008817;28;20468;-60
2022/01/20 12:25:24;;;;;;;46.90;5.43;;;7.00;29.40;;;;;;5021133;28;20858;-60
2022/01/20 12:27:51;;;;;;;40.87;6.93;;;6.90;29.80;;;;;;5009494;28;20491;-60
2022/01/20 12:30:23;;;;;;;42.10;10.43;;;6.90;29.90;;;;;;5008662;28;20535;-62
2022/01/20 12:32:57;;;;;;;41.60;9.63;;;7.10;30.80;;;;;;5007735;28;20986;-61
2022/01/20 12:35:24;;;;;;;41.20;9.00;;;7.30;30.10;;;;;;5014671;28;20459;-61
2022/01/20 12:37:51;;;;;;;38.50;6.43;;;7.40;30.30;;;;;;5017383;28;20465;-62
2022/01/20 12:40:22;;;;;;;38.10;4.97;;;7.50;29.50;;;;;;5009506;28;20471;-62
2022/01/20 12:42:49;;;;;;;41.40;4.80;;;7.40;29.60;;;;;;5009539;28;20475;-61
2022/01/20 12:48:14;;;;;;;37.00;6.23;;;7.30;30.10;;;;;;5010956;28;20466;-62
2022/01/20 12:50:51;;;;;;;42.47;9.70;;;7.30;30.20;;;;;;5004747;28;20495;-61
2022/01/20 12:53:18;;;;;;;35.47;4.97;;;7.30;30.00;;;;;;5008847;28;20463;-62
2022/01/20 12:55:52;;;;;;;38.37;5.00;;;7.10;30.80;;;;;;5011765;28;20464;-63
2022/01/20 12:58:19;;;;;;;37.77;4.90;;;7.00;31.90;;;;;;5010390;28;21045;-63
2022/01/20 13:00:58;;;;;;;36.80;4.30;;;6.70;32.40;;;;;;5013536;28;20492;-63
2022/01/20 13:03:35;;;;;;;35.43;4.40;;;6.50;34.50;;;;;;5016738;28;20493;-65
2022/01/20 13:06:02;;;;;;;41.03;4.47;;;6.40;35.20;;;;;;5008627;28;20456;-61
2022/01/20 13:08:32;;;;;;;38.17;4.50;;;6.30;35.20;;;;;;5007319;28;20844;-62
2022/01/20 13:11:04;;;;;;;35.67;4.30;;;6.20;35.40;;;;;;5008915;28;20475;-63
2022/01/20 13:13:31;;;;;;;41.17;6.60;;;6.10;35.50;;;;;;5019767;28;20467;-64
2022/01/20 13:15:58;;;;;;;44.33;9.43;;;6.00;35.70;;;;;;5008682;28;20814;-62
2022/01/20 13:18:25;;;;;;;40.40;9.03;;;6.00;35.90;;;;;;5008030;28;20451;-63
2022/01/20 13:20:55;;;;;;;49.00;14.10;;;6.00;36.20;;;;;;5008209;28;20479;-63
2022/01/20 13:26:15;;;;;;;37.90;6.60;;;6.00;36.30;;;;;;4983594;28;20444;-63
2022/01/20 13:28:42;;;;;;;49.17;10.33;;;5.90;36.40;;;;;;5007327;28;20455;-62
2022/01/20 13:31:17;;;;;;;39.00;5.90;;;6.00;36.70;;;;;;5005911;28;20468;-63
2022/01/20 13:33:44;;;;;;;46.83;7.07;;;6.00;36.90;;;;;;5005524;28;20829;-62
2022/01/20 13:36:11;;;;;;;39.93;6.60;;;6.00;37.00;;;;;;5013054;28;20460;-62
2022/01/20 13:38:45;;;;;;;42.23;8.63;;;6.00;36.90;;;;;;5028247;28;20558;-63
2022/01/20 13:41:18;;;;;;;40.53;7.90;;;6.00;37.00;;;;;;5008668;28;20478;-62
2022/01/20 13:46:31;;;;;;;39.47;5.57;;;6.10;36.60;;;;;;4988874;28;20642;-63
2022/01/20 13:49:07;;;;;;;37.47;5.70;;;6.10;36.40;;;;;;5004452;28;20456;-63
2022/01/20 13:51:34;;;;;;;37.70;4.90;;;6.00;36.00;;;;;;5006961;28;20537;-63
2022/01/20 13:54:01;;;;;;;38.90;5.60;;;5.90;35.80;;;;;;4995837;28;20468;-62
2022/01/20 13:56:30;;;;;;;40.90;6.43;;;5.90;36.10;;;;;;5028054;28;20485;-63